Time;durP1;ratioP1;P1;durP2;ratioP2;P2;SDS_P1;SDS_P2;PMS_P1;PMS_P2;Temp;Humidity;BMP_temperature;BMP_pressure;BME280_temperature;BME280_humidity;BME280_pressure;Samples;Min_cycle;Max_cycle;Signal;HPM_P1;HPM_P2
2021/10/09 00:01:43;;;;;;;;;16.25;16.25;;;;;13.42;70.88;102429.06;5022814;28;45817;-88
2021/10/09 00:04:09;;;;;;;;;15.50;15.25;;;;;13.44;70.58;102433.44;5037704;28;46223;-89
2021/10/09 00:06:34;;;;;;;;;21.75;19.50;;;;;13.37;70.56;102430.03;5040585;28;45313;-88
2021/10/09 00:09:01;;;;;;;;;22.00;19.75;;;;;13.36;70.90;102432.69;5040614;28;45363;-87
2021/10/09 00:12:00;;;;;;;;;24.25;21.75;;;;;13.38;71.13;102442.31;5040153;28;45476;-87
2021/10/09 00:14:18;;;;;;;;;25.00;20.50;;;;;13.28;70.82;102425.75;5036793;28;46230;-87
2021/10/09 00:16:44;;;;;;;;;22.25;19.00;;;;;13.28;70.82;102438.97;5039904;28;45422;-87
2021/10/09 00:19:11;;;;;;;;;23.00;20.25;;;;;13.23;71.20;102430.28;5040200;28;45365;-87
2021/10/09 00:21:43;;;;;;;;;23.25;22.50;;;;;13.19;71.55;102428.56;5040183;28;45486;-87
2021/10/09 00:24:08;;;;;;;;;19.75;18.50;;;;;13.18;71.24;102432.13;5021559;28;47286;-87
2021/10/09 00:26:34;;;;;;;;;21.25;19.50;;;;;13.14;71.38;102430.41;5039946;28;45497;-90
2021/10/09 00:28:59;;;;;;;;;21.00;19.00;;;;;13.11;71.11;102433.97;5022366;28;45450;-91
2021/10/09 00:31:25;;;;;;;;;18.50;17.50;;;;;13.12;71.54;102440.13;5039920;28;45450;-90
2021/10/09 00:33:51;;;;;;;;;22.50;21.25;;;;;13.03;71.50;102422.69;5039473;28;45425;-86
2021/10/09 00:36:16;;;;;;;;;20.25;19.50;;;;;13.05;71.87;102434.97;5034853;28;45218;-84
2021/10/09 00:38:41;;;;;;;;;22.75;20.25;;;;;12.98;71.91;102433.31;5039314;28;45253;-84
2021/10/09 00:41:07;;;;;;;;;18.25;17.25;;;;;12.91;71.58;102426.41;5038129;28;45159;-84
2021/10/09 00:43:32;;;;;;;;;18.75;15.75;;;;;12.97;71.83;102436.84;5039731;28;46159;-85
2021/10/09 00:45:58;;;;;;;;;22.00;19.75;;;;;12.90;71.64;102428.16;5039900;28;45271;-85
2021/10/09 00:48:25;;;;;;;;;19.50;17.50;;;;;12.92;72.00;102436.91;5021403;28;45283;-83
2021/10/09 00:50:51;;;;;;;;;22.75;21.25;;;;;12.90;71.86;102428.16;5039235;28;45403;-83
2021/10/09 00:53:19;;;;;;;;;21.25;19.50;;;;;12.90;71.89;102430.81;5039398;28;45345;-83
2021/10/09 00:55:46;;;;;;;;;20.75;17.75;;;;;12.87;71.97;102432.59;5039918;28;45673;-82
2021/10/09 00:58:14;;;;;;;;;25.25;25.25;;;;;12.83;71.98;102432.66;5038985;28;45347;-81
2021/10/09 01:00:42;;;;;;;;;19.75;17.75;;;;;12.87;72.09;102430.84;5039762;28;45155;-81
2021/10/09 01:03:08;;;;;;;;;20.00;18.25;;;;;12.76;72.16;102412.56;5039372;28;45650;-81
2021/10/09 01:05:35;;;;;;;;;23.25;18.75;;;;;12.83;72.29;102429.16;5037881;28;45870;-82
2021/10/09 01:08:01;;;;;;;;;19.50;17.50;;;;;12.78;72.10;102428.34;5021704;28;45398;-81
2021/10/09 01:10:27;;;;;;;;;20.50;18.75;;;;;12.76;72.16;102427.50;5039539;28;45229;-81
2021/10/09 01:12:52;;;;;;;;;21.75;17.75;;;;;12.72;72.21;102421.38;5016346;28;47279;-82
2021/10/09 01:15:24;;;;;;;;;19.75;17.00;;;;;12.74;72.35;102432.78;5021622;28;45288;-83
2021/10/09 01:17:49;;;;;;;;;18.00;18.00;;;;;12.68;72.23;102423.22;5039279;28;45262;-83
2021/10/09 01:20:15;;;;;;;;;17.00;15.50;;;;;12.69;72.26;102426.72;5039392;28;45399;-82
2021/10/09 01:22:41;;;;;;;;;22.00;18.75;;;;;12.65;72.56;102432.94;5038124;28;45338;-80
2021/10/09 01:25:08;;;;;;;;;22.75;20.00;;;;;12.62;72.55;102428.56;5039044;28;45282;-80
2021/10/09 01:27:34;;;;;;;;;23.00;19.00;;;;;12.58;72.41;102421.59;5021484;28;45210;-80
2021/10/09 01:30:00;;;;;;;;;22.50;19.75;;;;;12.58;72.76;102421.59;5042037;28;45341;-81
2021/10/09 01:32:26;;;;;;;;;21.25;16.50;;;;;12.58;72.33;102430.38;5042447;28;46742;-82
2021/10/09 01:34:51;;;;;;;;;22.00;21.00;;;;;12.54;72.34;102425.19;5042678;28;45286;-82
2021/10/09 01:37:16;;;;;;;;;19.50;17.75;;;;;12.53;72.22;102418.16;5042626;28;45323;-83
2021/10/09 01:39:47;;;;;;;;;22.50;20.00;;;;;12.49;72.47;102420.81;5030095;28;45452;-82
2021/10/09 01:42:13;;;;;;;;;22.50;20.25;;;;;12.49;72.52;102422.63;5042389;28;46379;-84
2021/10/09 01:44:38;;;;;;;;;25.75;24.50;;;;;12.48;73.13;102418.22;5042775;28;45285;-83
2021/10/09 01:47:04;;;;;;;;;20.75;20.25;;;;;12.46;72.99;102414.72;5041124;28;45391;-83
2021/10/09 01:49:30;;;;;;;;;24.75;21.75;;;;;12.49;72.87;102412.06;5042405;28;45257;-81
2021/10/09 01:51:55;;;;;;;;;21.25;20.25;;;;;12.48;73.25;102415.59;5041621;28;46511;-82
2021/10/09 01:54:21;;;;;;;;;24.00;20.50;;;;;12.46;72.75;102409.47;5041960;28;45412;-81
2021/10/09 01:56:46;;;;;;;;;21.75;19.25;;;;;12.47;72.78;102412.06;5041841;28;45469;-84
2021/10/09 01:59:11;;;;;;;;;21.75;20.75;;;;;12.52;72.87;102422.53;5024300;28;47304;-84
2021/10/09 02:01:37;;;;;;;;;23.00;19.00;;;;;12.48;72.74;102412.94;5041954;28;46221;-86
2021/10/09 02:04:03;;;;;;;;;18.25;18.25;;;;;12.46;72.97;102409.47;5042139;28;45387;-86
2021/10/09 02:06:29;;;;;;;;;25.25;21.00;;;;;12.46;72.81;102412.09;5041788;28;45333;-85
2021/10/09 02:08:55;;;;;;;;;21.00;18.50;;;;;12.48;72.89;102410.31;5042211;28;45333;-85
2021/10/09 02:11:23;;;;;;;;;23.00;20.75;;;;;12.46;72.97;102418.25;5042113;28;45960;-85
2021/10/09 02:27:15;;;;;;;;;22.50;18.25;;;;;12.27;72.75;102404.47;5041142;28;45364;-81
2021/10/09 02:29:40;;;;;;;;;21.00;21.00;;;;;12.27;73.09;102402.66;5040912;28;45643;-87
2021/10/09 02:32:06;;;;;;;;;26.75;23.75;;;;;12.24;73.06;102401.84;5041975;28;45773;-83
2021/10/09 02:34:31;;;;;;;;;26.00;22.00;;;;;12.24;72.99;102396.56;5041558;28;45358;-83
2021/10/09 02:36:57;;;;;;;;;21.00;20.50;;;;;12.20;72.82;102401.00;5040982;28;45458;-85
2021/10/09 02:39:23;;;;;;;;;20.50;19.00;;;;;12.20;73.00;102401.00;5041622;28;45467;-82
2021/10/09 02:41:48;;;;;;;;;22.75;20.50;;;;;12.19;72.93;102403.66;5023242;28;46797;-86
2021/10/09 02:44:14;;;;;;;;;23.75;21.50;;;;;12.14;73.15;102399.34;5041271;28;45312;-82
2021/10/09 02:46:39;;;;;;;;;22.25;20.25;;;;;12.13;72.77;102407.25;5023595;28;45543;-83
2021/10/09 02:49:04;;;;;;;;;22.50;19.25;;;;;12.11;72.98;102401.97;5041599;28;45560;-82
2021/10/09 02:51:30;;;;;;;;;21.00;20.00;;;;;12.12;72.98;102402.84;5041519;28;46072;-81
2021/10/09 02:53:55;;;;;;;;;25.25;22.50;;;;;12.10;73.09;102402.00;5041125;28;45247;-83
2021/10/09 02:56:21;;;;;;;;;26.50;23.00;;;;;12.12;73.23;102408.97;5023161;28;45503;-87
2021/10/09 02:58:46;;;;;;;;;22.50;21.75;;;;;12.10;73.07;102404.63;5039970;28;45536;-82
2021/10/09 03:01:11;;;;;;;;;26.75;26.00;;;;;12.03;73.15;102403.81;5040570;28;45424;-81
2021/10/09 03:03:37;;;;;;;;;23.00;20.00;;;;;12.00;72.91;102388.06;5040836;28;45277;-80
2021/10/09 03:06:02;;;;;;;;;29.75;26.50;;;;;12.01;73.28;102395.94;5041702;28;45244;-79
2021/10/09 03:08:27;;;;;;;;;30.00;23.50;;;;;12.01;73.31;102405.59;5010138;28;45860;-82
2021/10/09 03:10:53;;;;;;;;;26.25;22.75;;;;;11.99;72.50;102403.00;5040485;28;45256;-89
2021/10/09 03:13:18;;;;;;;;;24.50;23.50;;;;;11.97;73.17;102396.00;5041058;28;45266;-87
2021/10/09 03:15:44;;;;;;;;;24.75;19.00;;;;;11.95;73.16;102395.16;5041343;28;45268;-87
2021/10/09 03:18:09;;;;;;;;;30.75;25.50;;;;;11.96;73.19;102402.16;5040590;28;45462;-80
2021/10/09 03:20:36;;;;;;;;;23.25;20.00;;;;;11.95;73.46;102403.91;5040376;28;45303;-81
2021/10/09 03:23:01;;;;;;;;;23.00;21.75;;;;;11.93;73.17;102398.66;5040521;28;45268;-79
2021/10/09 03:25:27;;;;;;;;;29.00;24.50;;;;;11.93;73.48;102409.22;5023534;28;45329;-80
2021/10/09 03:27:52;;;;;;;;;22.50;22.25;;;;;11.93;73.44;102403.06;5040113;28;45399;-79
2021/10/09 03:30:18;;;;;;;;;28.75;22.75;;;;;11.93;73.25;102403.06;5040531;28;46518;-78
2021/10/09 03:32:43;;;;;;;;;23.75;22.00;;;;;11.92;73.56;102404.84;5023154;28;45714;-78
2021/10/09 03:35:10;;;;;;;;;23.00;20.00;;;;;11.89;73.42;102402.25;5038361;28;45542;-82
2021/10/09 03:37:36;;;;;;;;;27.00;23.75;;;;;11.91;73.39;102404.84;5023097;28;47122;-81
2021/10/09 03:40:05;;;;;;;;;27.50;25.50;;;;;11.90;73.55;102403.13;5040872;28;46092;-82
2021/10/09 03:42:36;;;;;;;;;23.75;20.50;;;;;11.88;73.26;102400.47;5018654;28;45525;-82
2021/10/09 03:45:09;;;;;;;;;35.00;27.75;;;;;11.84;73.48;102398.78;5013311;28;45272;-83
2021/10/09 03:50:18;;;;;;;;;30.25;27.75;;;;;11.88;73.46;102399.59;5039650;28;45323;-80
2021/10/09 03:52:43;;;;;;;;;35.25;28.25;;;;;11.83;73.97;102391.75;5040767;28;45767;-82
2021/10/09 03:55:16;;;;;;;;;35.75;30.50;;;;;11.89;73.79;102404.88;5040331;28;45288;-81
2021/10/09 03:57:42;;;;;;;;;33.00;27.50;;;;;11.90;73.75;102406.59;5021913;28;46990;-82
2021/10/09 04:00:08;;;;;;;;;29.25;27.50;;;;;11.88;74.09;102396.97;5022900;28;47085;-82
2021/10/09 04:02:34;;;;;;;;;24.50;23.75;;;;;11.90;73.82;102408.38;5040325;28;45738;-82
2021/10/09 04:05:00;;;;;;;;;33.50;30.00;;;;;11.88;74.25;102402.25;5031978;28;45368;-81
2021/10/09 04:07:25;;;;;;;;;38.00;29.50;;;;;11.86;74.37;102402.25;5022568;28;45645;-84
2021/10/09 04:09:51;;;;;;;;;29.75;28.00;;;;;11.87;74.64;102397.88;5021714;28;47426;-82
2021/10/09 04:12:16;;;;;;;;;33.50;30.50;;;;;11.89;74.23;102396.97;5030282;28;45282;-83
2021/10/09 04:14:42;;;;;;;;;30.50;26.75;;;;;11.93;74.37;102398.66;5040348;28;45425;-79
2021/10/09 04:17:07;;;;;;;;;41.00;31.25;;;;;11.97;74.38;102396.00;5021839;28;46109;-79
2021/10/09 04:19:33;;;;;;;;;28.50;24.25;;;;;11.97;74.16;102398.63;5021234;28;47487;-83
2021/10/09 04:21:59;;;;;;;;;38.25;30.25;;;;;12.00;74.30;102401.25;5039301;28;45276;-84
2021/10/09 04:24:24;;;;;;;;;25.50;25.25;;;;;12.03;74.42;102398.56;5040327;28;45269;-82
2021/10/09 04:26:50;;;;;;;;;26.75;24.00;;;;;12.05;74.27;102391.50;5039911;28;45206;-83
2021/10/09 04:29:15;;;;;;;;;33.75;26.00;;;;;12.08;74.29;102407.28;5022274;28;47134;-82
2021/10/09 04:31:40;;;;;;;;;29.75;28.50;;;;;12.02;74.20;102391.56;5021167;28;45513;-83
2021/10/09 04:34:06;;;;;;;;;35.00;28.50;;;;;12.03;74.39;102393.28;5021927;28;45365;-83
2021/10/09 04:36:31;;;;;;;;;34.50;29.50;;;;;12.06;74.18;102393.25;5039298;28;45407;-85
2021/10/09 04:38:57;;;;;;;;;31.00;27.25;;;;;12.02;73.99;102397.69;5021951;28;47198;-87
2021/10/09 04:41:22;;;;;;;;;27.25;24.25;;;;;12.02;73.86;102396.81;5021263;28;45363;-87
2021/10/09 04:43:48;;;;;;;;;31.25;24.50;;;;;11.99;74.05;102392.47;5022145;28;45405;-90
2021/10/09 04:46:13;;;;;;;;;31.25;29.50;;;;;12.01;74.02;102401.22;5021567;28;46088;-87
2021/10/09 04:48:38;;;;;;;;;31.25;27.00;;;;;11.96;73.81;102388.97;5020388;28;48098;-87
2021/10/09 04:51:04;;;;;;;;;28.00;25.50;;;;;11.93;73.74;102393.41;5038808;28;45513;-90
2021/10/09 04:53:29;;;;;;;;;32.00;30.75;;;;;11.89;74.00;102388.19;5020273;28;45602;-89
2021/10/09 04:55:55;;;;;;;;;37.75;32.25;;;;;11.91;73.99;102387.28;5038821;28;45427;-88
2021/10/09 04:58:20;;;;;;;;;33.25;29.00;;;;;11.88;73.83;102383.78;5039594;28;46677;-87
2021/10/09 05:00:47;;;;;;;;;34.75;30.50;;;;;11.86;73.38;102389.09;5038656;28;45358;-87
2021/10/09 05:03:12;;;;;;;;;29.25;28.00;;;;;11.82;73.62;102382.13;5039942;28;45213;-88
2021/10/09 05:05:38;;;;;;;;;31.50;30.00;;;;;11.81;73.66;102389.16;5020785;28;47298;-88
2021/10/09 05:08:03;;;;;;;;;32.25;29.50;;;;;11.80;73.78;102392.66;5021698;28;46934;-88
2021/10/09 05:10:29;;;;;;;;;34.00;26.50;;;;;11.73;73.72;102379.59;5039125;28;45518;-87
2021/10/09 05:12:55;;;;;;;;;35.25;28.50;;;;;11.74;73.80;102383.97;5038879;28;45514;-89
2021/10/09 05:15:20;;;;;;;;;35.25;30.25;;;;;11.66;73.68;102379.66;5021539;28;46329;-88
2021/10/09 05:17:46;;;;;;;;;33.00;29.75;;;;;11.66;73.86;102384.03;5039385;28;45466;-89
2021/10/09 05:20:11;;;;;;;;;33.25;29.00;;;;;11.65;73.82;102380.56;5038875;28;45282;-81
2021/10/09 05:22:37;;;;;;;;;38.25;30.00;;;;;11.62;73.74;102384.97;5038380;28;45478;-81
2021/10/09 05:25:04;;;;;;;;;30.75;26.00;;;;;11.64;73.84;102396.38;5021387;28;45995;-80
2021/10/09 05:27:31;;;;;;;;;33.50;31.00;;;;;11.59;73.88;102380.63;5038961;28;45377;-80
2021/10/09 05:30:02;;;;;;;;;34.00;28.50;;;;;11.58;73.69;102381.53;5039595;28;45223;-80
2021/10/09 05:32:31;;;;;;;;;32.50;30.50;;;;;11.54;73.75;102387.69;5020759;28;45383;-82
2021/10/09 05:34:56;;;;;;;;;33.00;31.00;;;;;11.55;73.77;102392.09;5039122;28;45206;-81
2021/10/09 05:37:22;;;;;;;;;28.75;27.75;;;;;11.53;73.78;102391.22;5021191;28;48675;-81
2021/10/09 05:39:47;;;;;;;;;32.00;29.00;;;;;11.49;73.83;102393.00;5039170;28;45237;-82
2021/10/09 05:42:12;;;;;;;;;36.50;32.00;;;;;11.46;73.73;102390.41;5012910;28;45592;-88
2021/10/09 05:44:38;;;;;;;;;32.75;28.00;;;;;11.47;73.85;102398.31;5038675;28;45344;-87
2021/10/09 05:47:03;;;;;;;;;31.25;30.50;;;;;11.40;73.76;102387.84;5021126;28;47375;-88
2021/10/09 05:49:29;;;;;;;;;33.50;31.00;;;;;11.39;73.68;102389.59;5038813;28;45297;-88
2021/10/09 06:42:14;;;;;;;;;43.25;33.25;;;;;11.39;75.20;102446.63;5042033;28;45253;-82
2021/10/09 06:59:27;;;;;;;;;46.50;36.00;;;;;11.54;75.35;102457.03;5039993;28;45952;-83
2021/10/09 06:59:34;;;;;;;;;42.00;34.00;;;;;11.54;75.72;102453.53;5041444;28;45214;-87
2021/10/09 07:02:00;;;;;;;;;43.50;36.25;;;;;11.57;75.61;102462.28;5023138;28;47460;-87
2021/10/09 07:04:25;;;;;;;;;41.75;34.00;;;;;11.62;75.60;102467.50;5040036;28;45359;-87
2021/10/09 07:06:53;;;;;;;;;45.75;37.00;;;;;11.65;75.42;102467.47;5041511;28;45287;-83
2021/10/09 07:09:19;;;;;;;;;45.50;36.00;;;;;11.66;75.65;102466.56;5040659;28;45577;-84
2021/10/09 07:11:44;;;;;;;;;43.00;35.00;;;;;11.64;75.67;102468.34;5039098;28;45179;-83
2021/10/09 07:14:10;;;;;;;;;39.25;32.75;;;;;11.69;75.72;102477.09;5039055;28;45814;-84
2021/10/09 07:16:35;;;;;;;;;42.00;34.25;;;;;11.70;75.46;102476.19;5040730;28;45522;-83
2021/10/09 07:19:03;;;;;;;;;38.75;34.25;;;;;11.72;75.71;102472.69;5038724;28;45601;-84
2021/10/09 07:21:28;;;;;;;;;40.25;35.25;;;;;11.74;75.38;102476.16;5034660;28;45611;-83
2021/10/09 07:23:54;;;;;;;;;46.25;38.00;;;;;11.74;75.08;102477.03;5040703;28;45328;-84
2021/10/09 07:26:20;;;;;;;;;47.25;37.00;;;;;11.79;75.50;102480.50;5040276;28;45644;-84
2021/10/09 07:28:45;;;;;;;;;40.00;32.50;;;;;11.75;75.06;102470.03;5040687;28;45511;-83
2021/10/09 07:31:10;;;;;;;;;41.25;35.75;;;;;11.81;75.24;102483.13;5040338;28;46439;-83
2021/10/09 07:33:36;;;;;;;;;43.75;36.00;;;;;11.80;75.22;102484.88;5039809;28;45165;-83
2021/10/09 07:36:01;;;;;;;;;47.50;37.25;;;;;11.85;75.10;102487.50;5023074;28;45257;-84
2021/10/09 07:38:27;;;;;;;;;51.00;40.50;;;;;11.86;75.08;102490.97;5039480;28;45151;-83
2021/10/09 07:40:52;;;;;;;;;42.00;34.50;;;;;11.88;74.88;102487.44;5035451;28;45615;-84
2021/10/09 07:43:17;;;;;;;;;46.00;37.00;;;;;11.90;74.68;102487.44;5038892;28;45259;-84
2021/10/09 07:45:43;;;;;;;;;31.75;27.50;;;;;11.89;74.79;102488.31;5041091;28;45166;-83
2021/10/09 07:48:09;;;;;;;;;40.50;34.00;;;;;11.95;75.26;102497.94;5039960;28;46436;-84
2021/10/09 07:50:35;;;;;;;;;43.50;34.00;;;;;11.99;74.90;102502.25;5039140;28;45318;-84
2021/10/09 07:53:02;;;;;;;;;49.75;39.00;;;;;12.02;74.75;102499.59;5039398;28;45351;-84
2021/10/09 07:55:27;;;;;;;;;46.50;38.50;;;;;12.05;74.45;102502.19;5039818;28;45340;-82
2021/10/09 07:57:53;;;;;;;;;49.00;39.00;;;;;12.14;74.44;102506.53;5028680;28;45253;-83
2021/10/09 08:00:18;;;;;;;;;42.50;34.75;;;;;12.15;74.29;102509.13;5036098;28;46539;-84
2021/10/09 08:02:51;;;;;;;;;48.50;37.50;;;;;12.17;73.92;102508.25;5039398;28;45348;-83
2021/10/09 08:05:17;;;;;;;;;43.75;36.50;;;;;12.21;74.11;102512.59;5040298;28;45514;-84
2021/10/09 08:07:43;;;;;;;;;46.25;37.00;;;;;12.22;73.52;102512.56;5040446;28;45521;-85
2021/10/09 08:10:10;;;;;;;;;46.50;37.75;;;;;12.27;73.58;102517.81;5040037;28;45375;-84
2021/10/09 08:12:36;;;;;;;;;51.50;38.50;;;;;12.25;73.64;102511.66;5039564;28;45594;-85
2021/10/09 08:15:02;;;;;;;;;53.00;41.75;;;;;12.25;73.54;102511.66;5039963;28;45252;-82
2021/10/09 08:17:27;;;;;;;;;48.25;39.00;;;;;12.30;73.42;102522.19;5040160;28;45171;-90
2021/10/09 08:19:54;;;;;;;;;54.00;43.25;;;;;12.33;73.61;102517.72;5040114;28;45609;-88
2021/10/09 08:22:21;;;;;;;;;51.50;41.25;;;;;12.34;73.18;102514.22;5039594;28;45748;-87
2021/10/09 08:24:57;;;;;;;;;47.00;37.50;;;;;12.38;73.14;102512.41;5040488;28;45530;-89
2021/10/09 08:35:34;;;;;;;;;43.25;34.75;;;;;12.52;72.51;102512.22;5035780;28;45417;-82
2021/10/09 08:40:44;;;;;;;;;42.75;31.75;;;;;12.62;72.81;102501.56;5039129;28;46126;-84
2021/10/09 08:43:10;;;;;;;;;43.50;35.00;;;;;12.73;72.48;102507.56;5037567;28;45436;-88
2021/10/09 08:45:36;;;;;;;;;41.00;34.75;;;;;12.81;71.68;102513.63;5040375;28;45466;-94
2021/10/09 08:48:01;;;;;;;;;35.25;31.25;;;;;12.83;72.35;102506.56;5022260;28;46049;-89
2021/10/09 08:50:27;;;;;;;;;43.75;32.50;;;;;12.88;70.89;102502.97;5039771;28;45483;-90
2021/10/09 08:53:03;;;;;;;;;49.75;39.00;;;;;12.95;71.18;102507.25;5020564;28;45854;-91
2021/10/09 08:55:30;;;;;;;;;46.25;36.25;;;;;13.01;70.98;102514.22;5040032;28;45241;-88
2021/10/09 08:58:01;;;;;;;;;36.25;28.50;;;;;13.02;71.67;102508.91;5038425;28;46396;-86
2021/10/09 09:00:58;;;;;;;;;47.50;37.50;;;;;13.12;71.48;102516.69;5021073;28;46267;-86
2021/10/09 09:03:32;;;;;;;;;41.75;34.75;;;;;13.21;70.67;102510.41;5021593;28;45444;-83
2021/10/09 09:41:22;;;;;;;;;39.25;34.25;;;;;13.92;68.29;102484.56;5039231;28;45467;-83
2021/10/09 09:43:51;;;;;;;;;40.00;34.25;;;;;13.96;67.35;102488.00;5037831;28;45458;-83
2021/10/09 09:46:23;;;;;;;;;41.50;34.75;;;;;14.06;67.81;102484.28;5038917;28;45224;-86
2021/10/09 09:48:49;;;;;;;;;34.50;31.50;;;;;14.15;68.40;102488.50;5014255;28;45514;-86
2021/10/09 09:51:17;;;;;;;;;42.25;34.75;;;;;14.21;67.81;102481.34;5022467;28;47388;-90
2021/10/09 09:53:45;;;;;;;;;43.75;36.75;;;;;14.24;66.98;102466.31;5024708;28;47574;-89
2021/10/09 09:56:12;;;;;;;;;37.00;32.75;;;;;14.29;66.95;102474.16;5042817;28;45225;-89
2021/10/09 09:58:41;;;;;;;;;31.50;27.50;;;;;14.43;67.16;102487.06;5042624;28;45391;-86
2021/10/09 10:01:08;;;;;;;;;38.25;33.00;;;;;14.42;66.51;102468.59;5024355;28;45420;-87
2021/10/09 10:03:34;;;;;;;;;38.25;31.50;;;;;14.48;66.54;102471.97;5041955;28;47368;-86
2021/10/09 10:06:01;;;;;;;;;40.50;34.50;;;;;14.50;65.94;102470.16;5042321;28;45787;-86
2021/10/09 10:08:26;;;;;;;;;34.00;30.00;;;;;14.59;66.27;102470.88;5052238;28;45420;-86
2021/10/09 10:10:56;;;;;;;;;38.75;31.50;;;;;14.62;66.28;102465.50;5042745;28;45374;-91
2021/10/09 10:13:30;;;;;;;;;34.25;28.50;;;;;14.67;65.94;102470.72;5034478;28;46700;-88
2021/10/09 10:15:57;;;;;;;;;41.25;35.75;;;;;14.72;65.83;102463.50;5019984;28;45959;-88
2021/10/09 10:18:41;;;;;;;;;40.25;36.25;;;;;14.82;64.72;102467.69;5045415;28;46402;-88
2021/10/09 10:21:06;;;;;;;;;37.75;32.50;;;;;14.81;65.30;102458.03;5044262;28;45422;-89
2021/10/09 10:23:36;;;;;;;;;39.75;31.75;;;;;14.90;65.64;102464.03;5042669;28;45580;-89
2021/10/09 10:26:19;;;;;;;;;36.00;31.25;;;;;14.99;64.40;102468.25;5014307;28;45393;-88
2021/10/09 10:28:46;;;;;;;;;35.00;30.50;;;;;14.96;65.00;102453.31;5023844;28;45495;-89
2021/10/09 10:31:12;;;;;;;;;37.00;29.50;;;;;15.03;64.80;102454.03;5036039;28;45258;-89
2021/10/09 10:33:43;;;;;;;;;35.50;34.25;;;;;15.16;63.42;102473.13;5038092;28;45511;-88
2021/10/09 10:36:32;;;;;;;;;32.00;28.50;;;;;15.22;63.76;102469.44;5040569;28;45220;-89
2021/10/09 10:38:57;;;;;;;;;41.00;34.00;;;;;15.22;63.58;102457.06;5031948;28;45424;-88
2021/10/09 10:41:44;;;;;;;;;31.75;26.75;;;;;15.26;62.29;102461.38;5030919;28;45377;-86
2021/10/09 10:44:30;;;;;;;;;43.25;34.25;;;;;15.32;62.74;102464.78;5040460;28;45345;-86
2021/10/09 10:47:00;;;;;;;;;29.50;27.00;;;;;15.34;63.67;102458.53;5033864;28;45857;-86
2021/10/09 10:49:54;;;;;;;;;31.00;24.25;;;;;15.40;62.09;102454.88;5039772;28;45603;-86
2021/10/09 10:53:04;;;;;;;;;38.00;29.25;;;;;15.50;61.70;102459.03;5036090;28;46050;-85
2021/10/09 10:56:08;;;;;;;;;34.25;31.25;;;;;15.56;61.26;102455.31;5041668;28;45402;-86
2021/10/09 10:58:35;;;;;;;;;25.25;22.00;;;;;15.60;62.19;102448.16;5037317;28;45789;-86
2021/10/09 11:01:23;;;;;;;;;32.50;27.50;;;;;15.67;60.50;102454.16;5040239;28;45268;-86
2021/10/09 11:03:54;;;;;;;;;31.25;29.00;;;;;15.66;60.60;102450.66;5041255;28;45227;-86
2021/10/09 11:06:22;;;;;;;;;24.75;24.25;;;;;15.72;61.01;102441.66;5041224;28;45535;-86
2021/10/09 11:08:48;;;;;;;;;31.50;28.00;;;;;15.83;61.00;102449.31;5040591;28;45739;-86
2021/10/09 11:11:14;;;;;;;;;28.50;26.50;;;;;15.86;61.17;102450.09;5041607;28;45408;-86
2021/10/09 11:13:41;;;;;;;;;24.00;21.25;;;;;15.87;61.37;102445.66;5041180;28;45312;-86
2021/10/09 11:16:07;;;;;;;;;21.00;20.00;;;;;15.92;60.83;102442.88;5037832;28;45450;-86
2021/10/09 11:18:51;;;;;;;;;22.50;21.50;;;;;16.01;59.62;102441.75;5040266;28;45324;-86
2021/10/09 11:21:18;;;;;;;;;23.25;19.50;;;;;15.99;60.23;102444.44;5040950;28;45376;-85
2021/10/09 11:23:55;;;;;;;;;27.25;22.00;;;;;16.01;57.12;102441.75;5015512;28;46153;-85
2021/10/09 11:26:22;;;;;;;;;23.75;23.00;;;;;16.08;57.86;102440.69;5037357;28;45402;-86
2021/10/09 11:29:02;;;;;;;;;30.75;24.25;;;;;16.07;58.38;102436.31;5041019;28;45655;-85
2021/10/09 11:31:28;;;;;;;;;24.25;19.75;;;;;16.12;58.46;102438.81;5035338;28;45320;-85
2021/10/09 11:33:59;;;;;;;;;25.50;23.00;;;;;16.17;58.34;102432.44;5033665;28;45482;-86
2021/10/09 11:36:25;;;;;;;;;19.50;18.75;;;;;16.20;57.22;102437.66;5040715;28;46636;-85
2021/10/09 11:39:15;;;;;;;;;15.75;15.75;;;;;16.27;55.32;102440.16;5023085;28;45840;-86
2021/10/09 11:41:44;;;;;;;;;18.50;12.75;;;;;16.30;55.88;102432.09;5040306;28;45399;-85
2021/10/09 11:44:33;;;;;;;;;20.25;18.75;;;;;16.38;57.47;102440.69;5038880;28;45428;-86
2021/10/09 11:55:47;;;;;;;;;20.50;18.50;;;;;16.50;57.42;102431.47;5039751;28;45416;-86
2021/10/09 11:58:12;;;;;;;;;25.75;23.75;;;;;16.53;57.49;102427.84;5038595;28;45304;-86
2021/10/09 12:00:39;;;;;;;;;23.25;21.50;;;;;16.60;57.10;102428.53;5022763;28;45206;-86
2021/10/09 12:03:25;;;;;;;;;17.50;15.00;;;;;16.61;54.78;102420.53;5037251;28;45218;-85
2021/10/09 12:06:07;;;;;;;;;22.00;21.25;;;;;16.59;55.88;102419.72;5018899;28;46200;-86
2021/10/09 12:08:40;;;;;;;;;21.25;18.75;;;;;16.65;56.31;102426.59;5038368;28;47490;-86
2021/10/09 12:11:11;;;;;;;;;21.75;20.00;;;;;16.74;56.46;102420.16;5020323;28;45635;-84
2021/10/09 12:13:45;;;;;;;;;20.25;19.00;;;;;16.76;56.53;102415.66;5019919;28;45636;-86
2021/10/09 12:16:11;;;;;;;;;23.50;21.00;;;;;16.73;55.74;102411.31;5040453;28;45280;-86
2021/10/09 12:18:47;;;;;;;;;18.75;16.00;;;;;16.80;53.93;102421.72;5040555;28;45355;-86
2021/10/09 12:21:12;;;;;;;;;24.75;20.50;;;;;16.83;55.79;102419.84;5048900;28;45306;-86
2021/10/09 12:23:37;;;;;;;;;21.00;18.50;;;;;16.85;55.71;102417.13;5038430;28;45355;-86
2021/10/09 12:26:23;;;;;;;;;26.00;22.00;;;;;16.84;55.65;102420.72;5039887;28;45478;-86
2021/10/09 12:29:03;;;;;;;;;18.75;15.50;;;;;16.89;56.60;102425.88;5032230;28;46380;-86
2021/10/09 12:31:31;;;;;;;;;26.50;22.50;;;;;16.83;55.82;102411.88;5040959;28;45166;-86
2021/10/09 12:33:57;;;;;;;;;21.00;19.00;;;;;16.84;55.83;102410.09;5039071;28;45481;-86
2021/10/09 12:38:56;;;;;;;;;25.50;21.50;;;;;16.84;53.34;102400.31;5038757;28;45455;-86
2021/10/09 12:41:22;;;;;;;;;21.00;17.75;;;;;16.87;54.76;102396.69;5035078;28;45339;-86
2021/10/09 12:43:47;;;;;;;;;22.25;20.50;;;;;16.92;55.73;102413.34;5040222;28;45315;-86
2021/10/09 12:46:14;;;;;;;;;18.75;17.50;;;;;16.94;56.04;102400.03;5039430;28;45588;-86
2021/10/09 12:48:40;;;;;;;;;21.00;19.00;;;;;16.90;55.74;102387.75;5039690;28;46119;-86
2021/10/09 12:51:06;;;;;;;;;17.75;14.50;;;;;16.95;55.17;102391.13;5038045;28;45472;-86
2021/10/09 12:53:31;;;;;;;;;22.25;18.75;;;;;16.95;55.54;102383.16;5038524;28;45227;-86
2021/10/09 12:55:57;;;;;;;;;19.25;17.75;;;;;16.95;54.68;102381.38;5039649;28;45500;-86
2021/10/09 12:58:22;;;;;;;;;23.00;20.75;;;;;16.97;54.24;102386.63;5039815;28;45432;-86
2021/10/09 13:00:47;;;;;;;;;19.25;18.25;;;;;17.01;55.20;102382.09;5039588;28;45220;-86
2021/10/09 13:03:13;;;;;;;;;26.00;21.25;;;;;17.07;53.61;102392.50;5039288;28;45279;-86
2021/10/09 13:05:38;;;;;;;;;22.00;19.50;;;;;17.07;53.83;102382.75;5020305;28;46054;-86
2021/10/09 13:08:05;;;;;;;;;17.00;15.25;;;;;17.13;54.54;102389.66;5039825;28;45312;-86
2021/10/09 13:10:34;;;;;;;;;18.00;18.00;;;;;17.13;55.10;102384.34;5038303;28;45374;-86
2021/10/09 13:13:00;;;;;;;;;20.50;19.25;;;;;17.15;53.28;102381.59;5039472;28;45434;-86
2021/10/09 13:15:25;;;;;;;;;17.75;14.00;;;;;17.15;52.94;102370.97;5019353;28;45734;-86
2021/10/09 13:17:51;;;;;;;;;20.00;16.50;;;;;17.09;51.92;102375.59;5034258;28;45533;-86
2021/10/09 13:20:18;;;;;;;;;21.00;18.00;;;;;17.09;51.61;102372.06;5038271;28;45256;-86
2021/10/09 13:22:44;;;;;;;;;18.25;15.50;;;;;17.18;53.64;102377.09;5037368;28;45439;-86
2021/10/09 13:25:10;;;;;;;;;21.25;20.00;;;;;17.14;54.20;102377.19;5038544;28;45547;-86
2021/10/09 13:27:36;;;;;;;;;18.25;17.00;;;;;17.11;54.14;102367.56;5039387;28;46524;-86
2021/10/09 13:30:03;;;;;;;;;19.50;17.50;;;;;17.16;53.58;102378.06;5038685;28;45453;-86